createdAt,value
2019-05-14T00:01:55.669Z,8.11
2019-05-14T00:04:31.414Z,8.19
2019-05-14T00:07:04.296Z,8.10
2019-05-14T00:09:37.684Z,8.11
2019-05-14T00:12:11.573Z,8.08
2019-05-14T00:14:45.063Z,8.04
2019-05-14T00:17:18.442Z,8.02
2019-05-14T00:20:05.815Z,8.03
2019-05-14T00:22:27.038Z,8.10
2019-05-14T00:25:01.123Z,8.10
2019-05-14T00:27:34.624Z,8.15
2019-05-14T00:30:08.573Z,8.05
2019-05-14T00:32:42.006Z,7.84
2019-05-14T00:35:15.418Z,7.69
2019-05-14T00:37:48.823Z,7.54
2019-05-14T00:40:22.336Z,7.53
2019-05-14T00:42:55.784Z,7.57
2019-05-14T00:45:31.118Z,7.48
2019-05-14T00:48:04.505Z,7.37
2019-05-14T00:50:37.932Z,7.35
2019-05-14T00:53:11.819Z,7.34
2019-05-14T00:55:45.210Z,7.30
2019-05-14T00:58:18.613Z,7.31
2019-05-14T01:00:52.680Z,7.39
2019-05-14T01:03:26.208Z,7.35
2019-05-14T01:05:59.632Z,7.42
2019-05-14T01:08:33.037Z,7.46
2019-05-14T01:11:06.445Z,7.44
2019-05-14T01:13:41.689Z,7.51
2019-05-14T01:16:15.020Z,7.67
2019-05-14T01:18:48.419Z,7.53
2019-05-14T01:21:22.062Z,7.66
2019-05-14T01:23:55.418Z,7.63
2019-05-14T01:26:30.975Z,7.59
2019-05-14T01:29:04.026Z,7.61
2019-05-14T01:31:37.453Z,7.47
2019-05-14T01:34:11.297Z,7.37
2019-05-14T01:36:44.936Z,7.53
2019-05-14T01:39:18.341Z,7.53
2019-05-14T01:41:51.850Z,7.63
2019-05-14T01:44:25.320Z,7.85
2019-05-14T01:46:58.731Z,7.66
2019-05-14T01:49:32.121Z,7.67
2019-05-14T01:52:05.636Z,7.42
2019-05-14T01:54:39.020Z,7.67
2019-05-14T01:57:12.563Z,7.43
2019-05-14T01:59:45.931Z,7.32
2019-05-14T02:02:19.337Z,7.32
2019-05-14T02:04:52.754Z,7.27
2019-05-14T02:07:26.198Z,7.33
2019-05-14T02:10:01.170Z,7.29
2019-05-14T02:12:34.947Z,7.45
2019-05-14T02:15:08.783Z,7.31
2019-05-14T02:17:42.190Z,7.23
2019-05-14T02:20:15.725Z,7.22
2019-05-14T02:22:49.125Z,7.13
2019-05-14T02:25:22.523Z,7.10
2019-05-14T02:27:55.937Z,7.00
2019-05-14T02:30:45.060Z,6.76
2019-05-14T02:33:04.495Z,6.63
2019-05-14T02:35:39.790Z,6.55
2019-05-14T02:38:13.032Z,6.53
2019-05-14T02:40:49.280Z,6.68
2019-05-14T02:43:21.732Z,6.64
2019-05-14T02:46:06.082Z,6.74
2019-05-14T02:48:30.302Z,6.64
2019-05-14T02:51:03.689Z,6.58
2019-05-14T02:53:39.103Z,6.63
2019-05-14T02:56:12.242Z,6.58
2019-05-14T02:58:45.683Z,6.74
2019-05-14T03:01:19.947Z,6.77
2019-05-14T03:03:53.736Z,6.70
2019-05-14T03:06:29.126Z,6.81
2019-05-14T03:09:02.476Z,6.88
2019-05-14T03:11:35.937Z,6.85
2019-05-14T03:14:09.437Z,6.85
2019-05-14T03:16:42.884Z,7.01
2019-05-14T03:19:19.235Z,7.00
2019-05-14T03:21:51.381Z,6.99
2019-05-14T03:24:24.885Z,6.93
2019-05-14T03:26:58.831Z,6.89
2019-05-14T03:29:32.334Z,7.07
2019-05-14T03:32:11.945Z,6.87
2019-05-14T03:34:43.701Z,6.90
2019-05-14T03:37:22.593Z,6.96
2019-05-14T03:39:51.363Z,6.75
2019-05-14T03:42:24.894Z,6.70
2019-05-14T03:44:59.774Z,6.32
2019-05-14T03:47:33.628Z,6.02
2019-05-14T03:50:10.161Z,5.69
2019-05-14T03:52:42.419Z,5.67
2019-05-14T03:55:15.954Z,5.43
2019-05-14T03:57:50.215Z,5.40
2019-05-14T04:00:44.433Z,5.44
2019-05-14T04:03:19.831Z,5.45
2019-05-14T04:05:53.754Z,5.57
2019-05-14T04:08:29.319Z,5.55
2019-05-14T04:11:02.883Z,5.50
2019-05-14T04:13:40.505Z,5.52
2019-05-14T04:16:14.875Z,5.71
2019-05-14T04:18:50.692Z,5.79
2019-05-14T04:21:25.473Z,5.92
2019-05-14T04:24:00.976Z,5.94
2019-05-14T04:26:53.413Z,6.01
2019-05-14T04:29:13.412Z,6.07
2019-05-14T04:31:50.135Z,6.16
2019-05-14T04:34:23.542Z,6.46
2019-05-14T04:36:59.294Z,6.61
2019-05-14T04:39:32.288Z,6.55
2019-05-14T04:42:05.683Z,7.17
2019-05-14T04:44:40.449Z,8.26
2019-05-14T04:47:27.843Z,8.05
2019-05-14T04:49:50.492Z,8.28
2019-05-14T04:52:24.278Z,8.63
2019-05-14T04:54:59.416Z,8.77
2019-05-14T04:57:32.858Z,8.91
2019-05-14T05:00:25.384Z,9.61
2019-05-14T05:02:59.994Z,9.56
2019-05-14T05:05:35.049Z,10.01
2019-05-14T05:08:09.091Z,9.33
2019-05-14T05:10:42.643Z,9.32
2019-05-14T05:13:18.448Z,9.17
2019-05-14T05:15:51.209Z,8.92
2019-05-14T05:18:24.620Z,9.13
2019-05-14T05:20:58.410Z,10.16
2019-05-14T05:23:31.930Z,9.96
2019-05-14T05:26:05.390Z,10.23
2019-05-14T05:28:39.283Z,10.67
2019-05-14T05:31:12.818Z,10.23
2019-05-14T05:33:48.748Z,9.92
2019-05-14T05:36:21.377Z,9.83
2019-05-14T05:38:54.774Z,9.94
2019-05-14T05:41:28.385Z,10.27
2019-05-14T05:44:01.796Z,10.37
2019-05-14T05:46:35.209Z,9.89
2019-05-14T05:49:08.625Z,8.99
2019-05-14T05:51:42.033Z,10.35
2019-05-14T05:54:15.466Z,9.36
2019-05-14T05:56:48.900Z,8.84
2019-05-14T05:59:22.345Z,8.89
2019-05-14T06:01:58.454Z,8.64
2019-05-14T06:04:31.253Z,9.55
2019-05-14T06:07:04.724Z,10.89
2019-05-14T06:09:38.396Z,11.34
2019-05-14T06:12:11.798Z,10.73
2019-05-14T06:14:45.235Z,11.66
2019-05-14T06:17:19.246Z,11.40
2019-05-14T06:19:52.752Z,10.89
2019-05-14T06:22:27.997Z,12.07
2019-05-14T06:25:01.519Z,12.19
2019-05-14T06:27:34.996Z,11.25
2019-05-14T06:30:09.573Z,10.72
2019-05-14T06:32:42.975Z,11.06
2019-05-14T06:35:19.174Z,11.68
2019-05-14T06:37:51.648Z,12.18
2019-05-14T06:40:25.147Z,12.01
2019-05-14T06:42:59.137Z,13.09
2019-05-14T06:45:32.700Z,12.40
2019-05-14T06:48:08.515Z,12.14
2019-05-14T06:50:41.326Z,11.73
2019-05-14T06:53:14.723Z,10.91
2019-05-14T06:55:48.482Z,11.18
2019-05-14T06:58:22.024Z,12.03
2019-05-14T07:00:55.458Z,12.20
2019-05-14T07:03:28.870Z,11.84
2019-05-14T07:06:02.278Z,12.36
2019-05-14T07:08:35.673Z,12.98
2019-05-14T07:11:09.072Z,12.89
2019-05-14T07:13:42.483Z,12.85
2019-05-14T07:16:15.939Z,12.78
2019-05-14T07:18:53.757Z,12.78
2019-05-14T07:21:24.539Z,13.25
2019-05-14T07:23:59.305Z,13.21
2019-05-14T07:26:32.935Z,12.23
2019-05-14T07:29:11.260Z,12.54
2019-05-14T07:31:41.564Z,13.19
2019-05-14T07:34:14.954Z,12.25
2019-05-14T07:36:49.065Z,13.19
2019-05-14T07:39:22.950Z,12.49
2019-05-14T07:41:58.719Z,13.56
2019-05-14T07:44:32.274Z,13.65
2019-05-14T07:47:07.989Z,13.14
2019-05-14T07:49:40.848Z,13.06
2019-05-14T07:52:14.304Z,12.73
2019-05-14T07:54:48.211Z,12.09
2019-05-14T07:57:21.799Z,11.94
2019-05-14T07:59:55.222Z,11.66
2019-05-14T08:02:29.107Z,12.17
2019-05-14T08:05:02.514Z,11.80
2019-05-14T08:07:35.932Z,12.48
2019-05-14T08:10:10.084Z,12.70
2019-05-14T08:12:43.564Z,13.14
2019-05-14T08:15:19.969Z,12.72
2019-05-14T08:17:52.361Z,12.83
2019-05-14T08:20:25.758Z,13.01
2019-05-14T08:22:59.250Z,13.09
2019-05-14T08:25:32.665Z,12.82
2019-05-14T08:28:08.092Z,13.49
2019-05-14T08:30:41.215Z,13.17
2019-05-14T08:33:14.631Z,13.48
2019-05-14T08:35:48.824Z,13.43
2019-05-14T08:38:22.614Z,13.22
2019-05-14T08:40:56.031Z,12.99
2019-05-14T08:43:29.469Z,13.44
2019-05-14T08:46:02.904Z,13.31
2019-05-14T08:48:38.625Z,13.27
2019-05-14T08:51:11.441Z,13.45
2019-05-14T08:53:44.849Z,13.72
2019-05-14T08:56:19.162Z,13.62
2019-05-14T08:58:52.851Z,13.62
2019-05-14T09:01:29.079Z,13.73
2019-05-14T09:04:01.368Z,13.91
2019-05-14T09:06:34.839Z,13.99
2019-05-14T09:09:09.657Z,13.99
2019-05-14T09:11:45.903Z,13.96
2019-05-14T09:14:18.856Z,13.79
2019-05-14T09:16:52.397Z,13.68
2019-05-14T09:19:28.573Z,13.71
2019-05-14T09:22:00.965Z,14.05
2019-05-14T09:24:34.481Z,14.29
2019-05-14T09:27:08.399Z,14.08
2019-05-14T09:29:42.050Z,14.42
2019-05-14T09:32:15.385Z,13.85
2019-05-14T09:34:48.947Z,13.90
2019-05-14T09:37:22.316Z,14.09
2019-05-14T09:39:58.276Z,14.06
2019-05-14T09:42:30.874Z,13.90
2019-05-14T09:45:10.537Z,14.60
2019-05-14T09:47:41.592Z,14.24
2019-05-14T09:50:19.388Z,14.17
2019-05-14T09:52:50.700Z,14.39
2019-05-14T09:55:24.133Z,14.88
2019-05-14T09:57:58.681Z,14.62
2019-05-14T10:00:32.265Z,14.55
2019-05-14T10:03:09.373Z,14.22
2019-05-14T10:05:40.820Z,13.72
2019-05-14T10:08:14.236Z,14.16
2019-05-14T10:10:48.818Z,13.69
2019-05-14T10:13:22.448Z,13.48
2019-05-14T10:15:55.896Z,14.28
2019-05-14T10:18:29.305Z,14.86
2019-05-14T10:21:03.123Z,14.58
2019-05-14T10:23:38.691Z,15.16
2019-05-14T10:26:11.652Z,15.05
2019-05-14T10:28:45.058Z,15.09
2019-05-14T10:31:18.938Z,14.31
2019-05-14T10:33:52.322Z,13.78
2019-05-14T10:36:25.752Z,13.93
2019-05-14T10:38:59.140Z,13.64
2019-05-14T10:41:32.560Z,13.75
2019-05-14T10:44:06.111Z,13.73
2019-05-14T10:46:39.556Z,13.81
2019-05-14T10:49:22.645Z,14.12
2019-05-14T10:51:48.245Z,14.08
2019-05-14T10:54:25.679Z,14.37
2019-05-14T10:56:59.085Z,14.75
2019-05-14T10:59:31.962Z,14.58
2019-05-14T11:02:05.482Z,14.44
2019-05-14T11:04:39.154Z,14.73
2019-05-14T11:07:12.694Z,14.71
2019-05-14T11:09:48.431Z,14.62
2019-05-14T11:12:21.329Z,14.43
2019-05-14T11:14:55.678Z,14.49
2019-05-14T11:17:29.320Z,14.12
2019-05-14T11:20:02.951Z,14.43
2019-05-14T11:22:36.358Z,14.72
2019-05-14T11:25:10.010Z,15.22
2019-05-14T11:27:43.490Z,15.71
2019-05-14T11:30:19.329Z,15.20
2019-05-14T11:32:52.574Z,14.97
2019-05-14T11:35:28.607Z,14.70
2019-05-14T11:38:01.143Z,14.85
2019-05-14T11:40:34.635Z,15.16
2019-05-14T11:43:08.431Z,15.04
2019-05-14T11:45:41.923Z,15.04
2019-05-14T11:48:15.351Z,15.60
2019-05-14T11:50:49.294Z,15.63
2019-05-14T11:53:22.887Z,16.29
2019-05-14T11:55:58.539Z,16.04
2019-05-14T11:58:31.458Z,15.82
2019-05-14T12:01:05.087Z,16.27
2019-05-14T12:03:39.436Z,16.21
2019-05-14T12:06:13.105Z,15.60
2019-05-14T12:08:46.473Z,15.09
2019-05-14T12:11:19.902Z,14.93
2019-05-14T12:13:53.321Z,15.59
2019-05-14T12:16:29.118Z,15.59
2019-05-14T12:19:01.858Z,15.87
2019-05-14T12:21:35.248Z,16.27
2019-05-14T12:24:13.738Z,16.07
2019-05-14T12:26:43.924Z,16.07
2019-05-14T12:29:17.351Z,15.61
2019-05-14T12:31:50.878Z,16.21
2019-05-14T12:34:24.228Z,15.91
2019-05-14T12:36:58.249Z,16.43
2019-05-14T12:39:31.647Z,16.29
2019-05-14T12:42:05.145Z,16.38
2019-05-14T12:44:40.870Z,15.72
2019-05-14T12:47:13.950Z,15.60
2019-05-14T12:49:48.324Z,15.15
2019-05-14T12:52:25.825Z,14.80
2019-05-14T12:54:59.779Z,15.61
2019-05-14T12:57:32.249Z,15.54
2019-05-14T13:00:08.947Z,15.26
2019-05-14T13:02:42.511Z,15.80
2019-05-14T13:05:18.340Z,16.66
2019-05-14T13:07:51.328Z,15.85
2019-05-14T13:10:24.752Z,15.85
2019-05-14T13:12:58.857Z,15.51
2019-05-14T13:15:32.356Z,15.56
2019-05-14T13:18:08.545Z,14.93
2019-05-14T13:20:40.976Z,14.93
2019-05-14T13:23:14.385Z,15.07
2019-05-14T13:25:47.815Z,15.81
2019-05-14T13:28:21.199Z,15.27
2019-05-14T13:30:54.625Z,15.58
2019-05-14T13:33:28.538Z,15.44
2019-05-14T13:36:02.168Z,15.13
2019-05-14T13:38:35.557Z,15.15
2019-05-14T13:41:08.984Z,14.82
2019-05-14T13:43:42.421Z,14.41
2019-05-14T13:46:15.897Z,14.55
2019-05-14T13:48:50.062Z,14.86
2019-05-14T13:51:23.697Z,15.80
2019-05-14T13:53:58.969Z,15.60
2019-05-14T13:56:32.263Z,15.70
2019-05-14T13:59:05.793Z,15.59
2019-05-14T14:01:39.174Z,15.43
2019-05-14T14:04:15.163Z,15.22
2019-05-14T14:06:49.083Z,14.90
2019-05-14T14:09:22.635Z,14.71
2019-05-14T14:11:56.062Z,14.97
2019-05-14T14:14:29.508Z,15.09
2019-05-14T14:17:02.918Z,15.66
2019-05-14T14:19:38.721Z,16.33
2019-05-14T14:22:11.531Z,15.63
2019-05-14T14:24:44.931Z,15.29
2019-05-14T14:27:19.646Z,15.38
2019-05-14T14:29:53.194Z,15.09
2019-05-14T14:32:26.591Z,14.85
2019-05-14T14:35:00.096Z,14.73
2019-05-14T14:37:33.583Z,14.97
2019-05-14T14:40:10.013Z,14.65
2019-05-14T14:42:42.633Z,14.62
2019-05-14T14:45:16.283Z,15.10
2019-05-14T14:47:49.894Z,15.58
2019-05-14T14:50:23.372Z,15.53
2019-05-14T14:52:59.609Z,15.76
2019-05-14T14:55:31.936Z,15.95
2019-05-14T14:58:05.352Z,15.97
2019-05-14T15:00:38.790Z,16.57
2019-05-14T15:03:12.192Z,17.06
2019-05-14T15:05:45.659Z,16.35
2019-05-14T15:08:20.086Z,15.31
2019-05-14T15:10:53.767Z,15.18
2019-05-14T15:13:27.258Z,15.35
2019-05-14T15:16:01.211Z,15.47
2019-05-14T15:18:38.497Z,15.43
2019-05-14T15:21:10.738Z,15.43
2019-05-14T15:24:01.769Z,15.47
2019-05-14T15:26:19.578Z,15.72
2019-05-14T15:28:53.205Z,15.39
2019-05-14T15:31:29.243Z,14.92
2019-05-14T15:34:02.734Z,14.70
2019-05-14T15:36:41.285Z,14.56
2019-05-14T15:39:11.373Z,14.41
2019-05-14T15:41:44.850Z,14.70
2019-05-14T15:44:19.579Z,16.52
2019-05-14T15:46:53.273Z,16.79
2019-05-14T15:49:28.391Z,16.85
2019-05-14T15:52:01.869Z,17.40
2019-05-14T15:54:45.602Z,17.58
2019-05-14T15:57:10.423Z,17.58
2019-05-14T15:59:43.835Z,16.59
2019-05-14T16:02:20.132Z,15.36
2019-05-14T16:04:52.442Z,14.69
2019-05-14T16:07:25.875Z,14.51
2019-05-14T16:10:00.876Z,14.40
2019-05-14T16:12:34.607Z,14.36
2019-05-14T16:15:09.063Z,14.94
2019-05-14T16:18:00.295Z,16.06
2019-05-14T16:20:18.785Z,17.05
2019-05-14T16:22:52.499Z,16.60
2019-05-14T16:25:25.846Z,16.45
2019-05-14T16:27:59.573Z,17.07
2019-05-14T16:30:33.059Z,17.22
2019-05-14T16:33:09.134Z,17.33
2019-05-14T16:35:41.707Z,16.01
2019-05-14T16:38:15.101Z,15.11
2019-05-14T16:40:49.007Z,14.77
2019-05-14T16:43:22.539Z,14.78
2019-05-14T16:45:55.926Z,14.54
2019-05-14T16:48:29.737Z,14.40
2019-05-14T16:51:03.141Z,15.54
2019-05-14T16:53:37.970Z,16.41
2019-05-14T16:56:11.621Z,16.27
2019-05-14T16:58:45.141Z,15.48
2019-05-14T17:01:19.360Z,14.54
2019-05-14T17:03:52.845Z,14.27
2019-05-14T17:06:29.103Z,14.24
2019-05-14T17:09:01.485Z,14.16
2019-05-14T17:11:38.891Z,14.52
2019-05-14T17:14:10.130Z,15.89
2019-05-14T17:16:43.630Z,15.66
2019-05-14T17:19:18.776Z,15.71
2019-05-14T17:21:52.396Z,15.54
2019-05-14T17:24:28.896Z,15.78
2019-05-14T17:27:01.132Z,15.69
2019-05-14T17:29:34.625Z,14.64
2019-05-14T17:32:08.106Z,14.40
2019-05-14T17:34:41.525Z,14.31
2019-05-14T17:37:14.923Z,14.13
2019-05-14T17:39:48.956Z,14.05
2019-05-14T17:42:22.507Z,14.03
2019-05-14T17:44:55.939Z,13.95
2019-05-14T17:47:29.338Z,13.94
2019-05-14T17:50:02.942Z,13.94
2019-05-14T17:52:41.636Z,13.90
2019-05-14T17:55:12.488Z,13.86
2019-05-14T17:57:55.083Z,13.83
2019-05-14T18:00:21.355Z,13.70
2019-05-14T18:02:54.778Z,13.59
2019-05-14T18:05:29.090Z,13.61
2019-05-14T18:08:02.714Z,13.58
2019-05-14T18:10:36.129Z,13.48
2019-05-14T18:13:09.657Z,13.46
2019-05-14T18:15:43.202Z,13.36
2019-05-14T18:18:18.482Z,13.24
2019-05-14T18:20:51.856Z,13.16
2019-05-14T18:23:25.256Z,13.10
2019-05-14T18:26:08.062Z,13.09
2019-05-14T18:28:34.168Z,13.11
2019-05-14T18:31:09.509Z,13.04
2019-05-14T18:33:42.772Z,13.02
2019-05-14T18:36:18.863Z,12.91
2019-05-14T18:38:51.343Z,12.91
2019-05-14T18:41:24.770Z,12.82
2019-05-14T18:43:58.898Z,12.66
2019-05-14T18:46:33.079Z,12.60
2019-05-14T18:49:08.760Z,12.54
2019-05-14T18:51:41.805Z,12.58
2019-05-14T18:54:15.289Z,12.59
2019-05-14T18:56:49.012Z,12.52
2019-05-14T18:59:22.550Z,12.53
2019-05-14T19:01:56.023Z,12.44
2019-05-14T19:04:29.522Z,12.43
2019-05-14T19:07:02.962Z,12.25
2019-05-14T19:09:38.679Z,12.21
2019-05-14T19:12:11.613Z,12.05
2019-05-14T19:14:45.017Z,12.03
2019-05-14T19:17:18.885Z,11.93
2019-05-14T19:19:52.316Z,11.77
2019-05-14T19:22:25.779Z,11.77
2019-05-14T19:24:59.178Z,11.76
2019-05-14T19:27:32.670Z,11.72
2019-05-14T19:30:08.400Z,11.64
2019-05-14T19:32:42.047Z,11.53
2019-05-14T19:35:15.467Z,11.50
2019-05-14T19:37:48.942Z,11.46
2019-05-14T19:40:22.333Z,11.39
2019-05-14T19:42:55.748Z,11.36
2019-05-14T19:45:29.433Z,11.26
2019-05-14T19:48:02.881Z,11.50
2019-05-14T19:50:38.521Z,11.31
2019-05-14T19:53:11.823Z,11.14
2019-05-14T19:55:45.226Z,11.10
2019-05-14T19:58:20.053Z,11.17
2019-05-14T20:00:54.036Z,11.08
2019-05-14T20:03:29.131Z,11.02
2019-05-14T20:06:03.444Z,10.88
2019-05-14T20:08:38.385Z,10.93
2019-05-14T20:11:12.152Z,10.90
2019-05-14T20:13:45.588Z,10.97
2019-05-14T20:16:19.087Z,10.89
2019-05-14T20:18:52.551Z,10.87
2019-05-14T20:21:28.097Z,10.75
2019-05-14T20:24:01.155Z,10.58
2019-05-14T20:26:34.565Z,10.52
2019-05-14T20:29:08.740Z,10.39
2019-05-14T20:31:42.457Z,10.31
2019-05-14T20:34:15.881Z,10.23
2019-05-14T20:36:49.270Z,10.19
2019-05-14T20:39:22.700Z,10.14
2019-05-14T20:41:58.385Z,10.11
2019-05-14T20:44:31.301Z,10.09
2019-05-14T20:47:04.786Z,10.05
2019-05-14T20:49:38.241Z,9.98
2019-05-14T20:52:11.697Z,9.99
2019-05-14T20:54:45.166Z,9.95
2019-05-14T20:57:24.511Z,9.83
2019-05-14T20:59:53.730Z,9.83
2019-05-14T21:02:29.305Z,9.72
2019-05-14T21:05:04.713Z,9.65
2019-05-14T21:07:38.525Z,9.58
2019-05-14T21:10:13.183Z,9.56
2019-05-14T21:12:48.757Z,9.46
2019-05-14T21:15:21.771Z,9.40
2019-05-14T21:17:55.255Z,9.35
2019-05-14T21:20:28.613Z,9.31
2019-05-14T21:23:02.030Z,9.24
2019-05-14T21:25:35.527Z,9.22
2019-05-14T21:28:09.430Z,9.17
2019-05-14T21:30:43.370Z,9.10
2019-05-14T21:33:16.777Z,9.00
2019-05-14T21:35:50.274Z,8.93
2019-05-14T21:38:23.704Z,8.93
2019-05-14T21:40:58.269Z,8.92
2019-05-14T21:43:31.893Z,8.88
2019-05-14T21:46:05.315Z,8.93
2019-05-14T21:48:38.949Z,8.80
2019-05-14T21:51:12.323Z,8.81
2019-05-14T21:53:48.094Z,8.68
2019-05-14T21:56:21.776Z,8.63
2019-05-14T21:58:55.411Z,8.74
2019-05-14T22:01:30.972Z,8.76
2019-05-14T22:04:04.377Z,8.79
2019-05-14T22:06:41.143Z,8.78
2019-05-14T22:09:13.140Z,8.70
2019-05-14T22:11:48.473Z,8.69
2019-05-14T22:14:21.719Z,8.66
2019-05-14T22:16:55.155Z,8.60
2019-05-14T22:19:28.752Z,8.55
2019-05-14T22:22:02.106Z,8.53
2019-05-14T22:24:35.502Z,8.50
2019-05-14T22:27:09.516Z,8.55
2019-05-14T22:29:43.018Z,8.55
2019-05-14T22:32:16.427Z,8.57
2019-05-14T22:34:49.814Z,8.53
2019-05-14T22:37:23.217Z,8.35
2019-05-14T22:39:58.905Z,8.38
2019-05-14T22:42:31.753Z,8.45
2019-05-14T22:45:09.305Z,8.49
2019-05-14T22:47:42.902Z,8.44
2019-05-14T22:50:18.336Z,8.19
2019-05-14T22:52:51.575Z,7.83
2019-05-14T22:55:24.974Z,7.74
2019-05-14T22:57:59.532Z,7.45
2019-05-14T23:00:33.031Z,7.39
2019-05-14T23:03:06.453Z,7.37
2019-05-14T23:05:39.837Z,7.37
2019-05-14T23:08:13.287Z,7.38
2019-05-14T23:10:49.002Z,7.34
2019-05-14T23:13:21.802Z,7.38
2019-05-14T23:15:55.198Z,7.45
2019-05-14T23:18:28.819Z,7.43
2019-05-14T23:21:02.273Z,7.38
2019-05-14T23:23:35.947Z,7.59
2019-05-14T23:26:09.365Z,7.68
2019-05-14T23:28:45.921Z,7.60
2019-05-14T23:31:17.971Z,7.57
2019-05-14T23:33:51.929Z,7.52
2019-05-14T23:36:25.358Z,7.48
2019-05-14T23:38:59.308Z,7.36
2019-05-14T23:41:32.698Z,7.30
2019-05-14T23:44:08.164Z,7.27
2019-05-14T23:46:41.250Z,7.30
2019-05-14T23:49:14.676Z,7.30
2019-05-14T23:51:48.091Z,7.35
2019-05-14T23:54:21.509Z,7.31
2019-05-14T23:56:54.926Z,7.17
2019-05-14T23:59:29.389Z,7.14
